Time;durP1;ratioP1;P1;durP2;ratioP2;P2;SDS_P1;SDS_P2;PMS_P1;PMS_P2;Temp;Humidity;BMP_temperature;BMP_pressure;BME280_temperature;BME280_humidity;BME280_pressure;Samples;Min_cycle;Max_cycle;Signal;HPM_P1;HPM_P2
2023/09/13 00:01:40;;;;;;;686.83;301.33;;;;;;;;;;5046819;28;20032;-50
2023/09/13 00:04:06;;;;;;;676.13;293.58;;;;;;;;;;5064566;28;20017;-51
2023/09/13 00:06:31;;;;;;;670.95;284.08;;;;;;;;;;5061476;28;20104;-48
2023/09/13 00:08:56;;;;;;;676.80;277.50;;;;;;;;;;5052691;28;20044;-52
2023/09/13 00:11:21;;;;;;;685.97;305.88;;;;;;;;;;5066064;28;20078;-48
2023/09/13 00:13:47;;;;;;;690.13;298.33;;;;;;;;;;5065313;28;20102;-49
2023/09/13 00:16:12;;;;;;;691.80;313.67;;;;;;;;;;5064476;28;20020;-48
2023/09/13 00:18:37;;;;;;;681.83;278.27;;;;;;;;;;5065523;28;20402;-50
2023/09/13 00:21:03;;;;;;;701.08;309.73;;;;;;;;;;5063932;28;20048;-50
2023/09/13 00:23:28;;;;;;;692.03;282.38;;;;;;;;;;5046358;28;20028;-46
2023/09/13 00:25:54;;;;;;;693.42;290.73;;;;;;;;;;5064309;28;20086;-49
2023/09/13 00:28:19;;;;;;;682.45;277.13;;;;;;;;;;5061479;28;20046;-50
2023/09/13 00:30:44;;;;;;;670.28;240.93;;;;;;;;;;5062016;28;20085;-50
2023/09/13 00:33:10;;;;;;;670.33;234.05;;;;;;;;;;5046236;28;20049;-47
2023/09/13 00:35:35;;;;;;;657.22;213.30;;;;;;;;;;5058834;28;20082;-50
2023/09/13 00:38:00;;;;;;;673.03;249.02;;;;;;;;;;5065261;28;20523;-48
2023/09/13 00:40:26;;;;;;;643.33;210.98;;;;;;;;;;5063887;28;20540;-52
2023/09/13 00:42:51;;;;;;;656.08;217.25;;;;;;;;;;5064994;28;20458;-47
2023/09/13 00:45:16;;;;;;;633.50;180.43;;;;;;;;;;5059951;28;20039;-52
2023/09/13 00:47:42;;;;;;;651.97;195.77;;;;;;;;;;5063153;28;20028;-49
2023/09/13 00:50:08;;;;;;;639.63;187.18;;;;;;;;;;5063646;28;20024;-49
2023/09/13 00:52:34;;;;;;;655.95;213.18;;;;;;;;;;5065424;28;20027;-47
2023/09/13 00:54:59;;;;;;;643.42;201.32;;;;;;;;;;5062968;28;20467;-47
2023/09/13 00:57:25;;;;;;;642.05;197.70;;;;;;;;;;5065172;28;20025;-48
2023/09/13 00:59:50;;;;;;;648.97;210.75;;;;;;;;;;5060204;28;20028;-48
2023/09/13 01:02:15;;;;;;;618.67;139.60;;;;;;;;;;5062293;28;20381;-49
2023/09/13 01:04:41;;;;;;;632.42;163.52;;;;;;;;;;5063282;28;20025;-48
2023/09/13 01:07:08;;;;;;;651.45;214.13;;;;;;;;;;5063624;28;20040;-50
2023/09/13 01:09:34;;;;;;;656.10;219.18;;;;;;;;;;5062756;28;20047;-50
2023/09/13 01:11:59;;;;;;;662.97;220.85;;;;;;;;;;5065442;28;20051;-49
2023/09/13 01:14:25;;;;;;;664.80;229.45;;;;;;;;;;5060430;28;20020;-51
2023/09/13 01:16:50;;;;;;;658.42;218.98;;;;;;;;;;5053697;28;20099;-48
2023/09/13 01:19:15;;;;;;;646.28;207.60;;;;;;;;;;5063156;28;20040;-52
2023/09/13 01:22:01;;;;;;;657.40;220.35;;;;;;;;;;5065312;28;20032;-49
2023/09/13 01:24:30;;;;;;;659.30;216.88;;;;;;;;;;5063585;28;20036;-49
2023/09/13 01:26:58;;;;;;;653.33;217.77;;;;;;;;;;5065062;28;20067;-47
2023/09/13 01:29:25;;;;;;;649.78;211.45;;;;;;;;;;5062834;28;20017;-50
2023/09/13 01:31:50;;;;;;;660.45;216.52;;;;;;;;;;5061155;28;20038;-46
2023/09/13 01:34:15;;;;;;;647.38;212.63;;;;;;;;;;5063804;28;20031;-51
2023/09/13 01:36:41;;;;;;;639.22;201.20;;;;;;;;;;5060360;28;20020;-47
2023/09/13 01:39:06;;;;;;;666.90;232.43;;;;;;;;;;5062377;28;20530;-49
2023/09/13 01:41:35;;;;;;;656.08;215.10;;;;;;;;;;5063914;28;20024;-48
2023/09/13 01:44:00;;;;;;;653.55;223.57;;;;;;;;;;5043820;28;20052;-47
2023/09/13 01:46:29;;;;;;;643.80;203.32;;;;;;;;;;5048426;28;20110;-50
2023/09/13 01:48:58;;;;;;;658.08;216.68;;;;;;;;;;5042465;28;20036;-48
2023/09/13 01:51:24;;;;;;;652.55;216.13;;;;;;;;;;5047953;28;20329;-49
2023/09/13 01:53:50;;;;;;;649.72;215.98;;;;;;;;;;5063251;28;20036;-50
2023/09/13 01:56:16;;;;;;;648.92;214.20;;;;;;;;;;5046236;28;20028;-49
2023/09/13 01:58:42;;;;;;;657.95;216.73;;;;;;;;;;5045105;28;20138;-53
2023/09/13 02:01:07;;;;;;;653.33;217.35;;;;;;;;;;5014446;28;20060;-55
2023/09/13 02:03:32;;;;;;;652.75;217.60;;;;;;;;;;5074241;28;20021;-52
2023/09/13 02:05:58;;;;;;;646.53;214.32;;;;;;;;;;5062610;28;20031;-51
2023/09/13 02:08:23;;;;;;;648.53;206.63;;;;;;;;;;5061492;28;20024;-50
2023/09/13 02:10:48;;;;;;;660.97;233.07;;;;;;;;;;5059835;28;20028;-51
2023/09/13 02:13:14;;;;;;;670.65;239.13;;;;;;;;;;5064632;28;20111;-51
2023/09/13 02:15:40;;;;;;;664.92;236.52;;;;;;;;;;5062371;28;20032;-51
2023/09/13 02:18:05;;;;;;;659.10;239.93;;;;;;;;;;5063663;28;20470;-51
2023/09/13 02:20:30;;;;;;;661.92;240.02;;;;;;;;;;5066351;28;20039;-51
2023/09/13 02:22:55;;;;;;;655.72;216.57;;;;;;;;;;5067143;28;20119;-51
2023/09/13 02:25:21;;;;;;;649.97;213.80;;;;;;;;;;5066635;28;20024;-48
2023/09/13 02:27:46;;;;;;;652.10;213.95;;;;;;;;;;5067690;28;20044;-50
2023/09/13 02:30:11;;;;;;;658.97;223.10;;;;;;;;;;5065960;28;20024;-50
2023/09/13 02:32:36;;;;;;;647.30;218.23;;;;;;;;;;5067490;28;20500;-52
2023/09/13 02:35:02;;;;;;;639.67;199.85;;;;;;;;;;5065116;28;20462;-53
2023/09/13 02:37:28;;;;;;;646.00;213.63;;;;;;;;;;5053307;28;20030;-51
2023/09/13 02:39:53;;;;;;;655.95;217.35;;;;;;;;;;5055751;28;20469;-50
2023/09/13 02:42:18;;;;;;;655.85;227.20;;;;;;;;;;5067850;28;20075;-51
2023/09/13 02:44:43;;;;;;;661.78;238.55;;;;;;;;;;5063526;28;20060;-51
2023/09/13 02:47:09;;;;;;;654.17;221.88;;;;;;;;;;5047398;28;20037;-50
2023/09/13 02:49:34;;;;;;;659.88;233.50;;;;;;;;;;5052647;28;20488;-53
2023/09/13 02:51:59;;;;;;;640.40;193.52;;;;;;;;;;5066940;28;20029;-51
2023/09/13 02:54:25;;;;;;;658.35;229.43;;;;;;;;;;5065887;28;20439;-52
2023/09/13 02:56:50;;;;;;;649.17;212.40;;;;;;;;;;5067462;28;20024;-51
2023/09/13 02:59:15;;;;;;;643.72;206.90;;;;;;;;;;5066053;28;20474;-49
2023/09/13 03:01:44;;;;;;;650.70;220.73;;;;;;;;;;5063575;28;20074;-52
2023/09/13 03:04:09;;;;;;;645.53;201.45;;;;;;;;;;5063956;28;20279;-51
2023/09/13 03:06:34;;;;;;;643.65;206.82;;;;;;;;;;5056331;28;20308;-52
2023/09/13 03:08:59;;;;;;;651.63;230.90;;;;;;;;;;5064548;28;20413;-53
2023/09/13 03:11:25;;;;;;;649.92;223.85;;;;;;;;;;5047320;28;20458;-52
2023/09/13 03:13:51;;;;;;;648.50;235.98;;;;;;;;;;5046894;28;20017;-49
2023/09/13 03:16:17;;;;;;;655.75;238.27;;;;;;;;;;5066123;28;20521;-53
2023/09/13 03:18:43;;;;;;;645.97;227.52;;;;;;;;;;5045451;28;20044;-53
2023/09/13 03:21:09;;;;;;;648.67;236.25;;;;;;;;;;5059663;28;20013;-51
2023/09/13 03:23:38;;;;;;;654.85;234.32;;;;;;;;;;5062730;28;20040;-52
2023/09/13 03:26:14;;;;;;;658.03;245.50;;;;;;;;;;5064999;28;20024;-51
2023/09/13 03:28:39;;;;;;;657.00;236.27;;;;;;;;;;5066724;28;20036;-51
2023/09/13 03:31:08;;;;;;;655.38;231.20;;;;;;;;;;5051664;28;20024;-51
2023/09/13 03:33:33;;;;;;;651.42;202.70;;;;;;;;;;5052303;28;20053;-50
2023/09/13 03:35:58;;;;;;;651.40;210.18;;;;;;;;;;5062847;28;20063;-51
2023/09/13 03:38:24;;;;;;;649.75;216.75;;;;;;;;;;5066645;28;20547;-54
2023/09/13 03:40:49;;;;;;;649.88;214.65;;;;;;;;;;5064748;28;20025;-51
2023/09/13 03:43:14;;;;;;;649.20;215.77;;;;;;;;;;5063867;28;20664;-52
2023/09/13 03:45:39;;;;;;;649.13;226.55;;;;;;;;;;5054541;28;20021;-53
2023/09/13 03:48:05;;;;;;;649.20;227.35;;;;;;;;;;5059038;28;20456;-51
2023/09/13 03:50:32;;;;;;;648.13;218.00;;;;;;;;;;4995981;28;20036;-50
2023/09/13 03:52:57;;;;;;;653.30;236.98;;;;;;;;;;5065634;28;20029;-48
2023/09/13 03:55:22;;;;;;;659.47;212.23;;;;;;;;;;5053261;28;20567;-52
2023/09/13 03:57:48;;;;;;;650.13;225.50;;;;;;;;;;5054508;28;20064;-53
2023/09/13 04:00:15;;;;;;;647.92;234.65;;;;;;;;;;5055051;28;20470;-53
2023/09/13 04:02:40;;;;;;;646.17;216.50;;;;;;;;;;5059885;28;20029;-51
2023/09/13 04:05:06;;;;;;;649.45;218.65;;;;;;;;;;5064882;28;20051;-51
2023/09/13 04:07:31;;;;;;;648.05;235.43;;;;;;;;;;5065541;28;20496;-53
2023/09/13 04:09:56;;;;;;;651.25;236.00;;;;;;;;;;5065039;28;20100;-52
2023/09/13 04:12:22;;;;;;;652.22;226.82;;;;;;;;;;5065154;28;20458;-53
2023/09/13 04:14:47;;;;;;;651.30;219.90;;;;;;;;;;5064299;28;20035;-54
2023/09/13 04:17:12;;;;;;;645.30;224.95;;;;;;;;;;5065682;28;20401;-52
2023/09/13 04:19:37;;;;;;;654.75;234.63;;;;;;;;;;5064508;28;20494;-53
2023/09/13 04:22:03;;;;;;;657.53;214.20;;;;;;;;;;5065535;28;20501;-53
2023/09/13 04:24:28;;;;;;;648.13;214.52;;;;;;;;;;5063890;28;20066;-51
2023/09/13 04:26:53;;;;;;;652.85;231.68;;;;;;;;;;5065586;28;20107;-51
2023/09/13 04:29:19;;;;;;;654.88;249.18;;;;;;;;;;5060419;28;20477;-52
2023/09/13 04:31:44;;;;;;;658.17;238.43;;;;;;;;;;5059603;28;20024;-51
2023/09/13 04:34:09;;;;;;;656.55;230.95;;;;;;;;;;5044494;28;20587;-50
2023/09/13 04:36:35;;;;;;;670.72;241.55;;;;;;;;;;5064560;28;20096;-52
2023/09/13 04:39:00;;;;;;;675.03;240.35;;;;;;;;;;5049141;28;20485;-50
2023/09/13 04:41:26;;;;;;;677.67;243.25;;;;;;;;;;5065268;28;20040;-52
2023/09/13 04:43:51;;;;;;;702.53;251.40;;;;;;;;;;5063401;28;20053;-52
2023/09/13 04:46:16;;;;;;;664.25;246.50;;;;;;;;;;5050318;28;20536;-54
2023/09/13 04:48:42;;;;;;;659.97;252.45;;;;;;;;;;5045119;28;20611;-54
2023/09/13 04:51:08;;;;;;;661.80;229.00;;;;;;;;;;5063397;28;20432;-52
2023/09/13 04:53:33;;;;;;;662.95;241.77;;;;;;;;;;5064883;28;20115;-48
2023/09/13 04:56:00;;;;;;;668.25;248.85;;;;;;;;;;5063254;28;20142;-51
2023/09/13 04:58:26;;;;;;;666.85;243.00;;;;;;;;;;5059903;28;20036;-47
2023/09/13 05:00:52;;;;;;;676.10;252.35;;;;;;;;;;5061971;28;20017;-50
2023/09/13 05:03:17;;;;;;;672.67;240.43;;;;;;;;;;5065130;28;20021;-46
2023/09/13 05:05:42;;;;;;;668.03;247.30;;;;;;;;;;5044840;28;20036;-50
2023/09/13 05:08:08;;;;;;;665.10;246.43;;;;;;;;;;5063849;28;20033;-50
2023/09/13 05:10:33;;;;;;;677.20;273.02;;;;;;;;;;5062750;28;20107;-49
2023/09/13 05:12:59;;;;;;;673.90;246.93;;;;;;;;;;5063911;28;20488;-51
2023/09/13 05:15:24;;;;;;;663.65;249.45;;;;;;;;;;5063278;28;20060;-48
2023/09/13 05:17:49;;;;;;;683.88;284.63;;;;;;;;;;5063921;28;20033;-50
2023/09/13 05:20:15;;;;;;;693.08;293.48;;;;;;;;;;5053617;28;20406;-51
2023/09/13 05:22:41;;;;;;;691.45;260.48;;;;;;;;;;5056944;28;20424;-49
2023/09/13 05:25:07;;;;;;;687.20;286.15;;;;;;;;;;5062995;28;20029;-51
2023/09/13 05:27:32;;;;;;;675.95;281.25;;;;;;;;;;5063644;28;20047;-49
2023/09/13 05:29:57;;;;;;;695.78;296.45;;;;;;;;;;5063876;28;20490;-51
2023/09/13 05:32:23;;;;;;;682.25;297.30;;;;;;;;;;5063790;28;20055;-50
2023/09/13 05:34:48;;;;;;;675.35;274.73;;;;;;;;;;5057000;28;20447;-50
2023/09/13 05:37:13;;;;;;;694.47;309.30;;;;;;;;;;5057148;28;20029;-52
2023/09/13 05:39:38;;;;;;;699.75;314.80;;;;;;;;;;5049663;28;20119;-49
2023/09/13 05:42:04;;;;;;;710.92;319.88;;;;;;;;;;5063857;28;20055;-52
2023/09/13 05:44:30;;;;;;;724.03;349.23;;;;;;;;;;5060469;28;20144;-52
2023/09/13 05:46:56;;;;;;;700.30;366.05;;;;;;;;;;5055066;28;20424;-51
2023/09/13 05:49:21;;;;;;;721.75;399.70;;;;;;;;;;5054203;28;20082;-47
2023/09/13 05:51:46;;;;;;;704.83;391.40;;;;;;;;;;5045041;28;20392;-49
2023/09/13 05:54:12;;;;;;;735.05;467.77;;;;;;;;;;5062706;28;20035;-52
2023/09/13 05:56:38;;;;;;;741.30;462.05;;;;;;;;;;5063383;28;20032;-54
2023/09/13 05:59:04;;;;;;;746.17;490.77;;;;;;;;;;5070295;28;20036;-50
2023/09/13 06:01:30;;;;;;;737.70;496.05;;;;;;;;;;5067626;28;20032;-48
2023/09/13 06:03:55;;;;;;;753.55;537.90;;;;;;;;;;5063672;28;20035;-49
2023/09/13 06:06:20;;;;;;;757.67;538.05;;;;;;;;;;5063562;28;20029;-49
2023/09/13 06:08:46;;;;;;;758.38;555.60;;;;;;;;;;5064837;28;20028;-52
2023/09/13 06:11:12;;;;;;;772.28;556.50;;;;;;;;;;5065478;28;20028;-49
2023/09/13 06:13:37;;;;;;;883.60;570.30;;;;;;;;;;5054027;28;20055;-52
2023/09/13 06:16:03;;;;;;;755.22;514.22;;;;;;;;;;5065597;28;20021;-54
2023/09/13 06:18:28;;;;;;;765.40;558.83;;;;;;;;;;5061999;28;20520;-50
2023/09/13 06:20:54;;;;;;;782.25;593.78;;;;;;;;;;5066253;28;20021;-53
2023/09/13 06:23:36;;;;;;;780.05;583.47;;;;;;;;;;5066036;28;20083;-52
2023/09/13 06:26:02;;;;;;;762.75;547.97;;;;;;;;;;5054461;28;20078;-50
2023/09/13 06:28:27;;;;;;;762.88;554.58;;;;;;;;;;5067020;28;20060;-55
2023/09/13 06:30:53;;;;;;;795.60;633.20;;;;;;;;;;5066574;28;20024;-54
2023/09/13 06:33:18;;;;;;;783.33;587.47;;;;;;;;;;5067720;28;20016;-53
2023/09/13 06:35:44;;;;;;;792.72;623.70;;;;;;;;;;5066476;28;20029;-51
2023/09/13 06:38:10;;;;;;;768.78;556.33;;;;;;;;;;5063384;28;20111;-49
2023/09/13 06:40:37;;;;;;;805.55;604.20;;;;;;;;;;5066096;28;20024;-52
2023/09/13 06:43:03;;;;;;;782.95;591.72;;;;;;;;;;5067165;28;20036;-52
2023/09/13 06:45:28;;;;;;;800.85;639.35;;;;;;;;;;5059763;28;20024;-52
2023/09/13 06:47:53;;;;;;;796.13;619.17;;;;;;;;;;5047740;28;20386;-50
2023/09/13 06:50:18;;;;;;;795.00;621.78;;;;;;;;;;5046283;28;20037;-53
2023/09/13 06:52:44;;;;;;;787.13;605.60;;;;;;;;;;5061513;28;20032;-51
2023/09/13 06:55:09;;;;;;;789.83;610.35;;;;;;;;;;5059050;28;20030;-53
2023/09/13 06:57:34;;;;;;;776.42;590.15;;;;;;;;;;5059941;28;20049;-50
2023/09/13 07:00:00;;;;;;;748.40;560.50;;;;;;;;;;5052935;28;20074;-52
2023/09/13 07:02:25;;;;;;;761.67;566.90;;;;;;;;;;5060936;28;20040;-55
2023/09/13 07:04:51;;;;;;;745.97;550.97;;;;;;;;;;5057679;28;20103;-51
2023/09/13 07:07:16;;;;;;;772.58;583.83;;;;;;;;;;5063204;28;20037;-52
2023/09/13 07:09:42;;;;;;;762.50;564.13;;;;;;;;;;5054752;28;20866;-55
2023/09/13 07:12:07;;;;;;;767.13;579.58;;;;;;;;;;5060550;28;20024;-52
2023/09/13 07:14:32;;;;;;;757.72;561.35;;;;;;;;;;5065320;28;20020;-55
2023/09/13 07:16:57;;;;;;;756.83;556.88;;;;;;;;;;5066346;28;20051;-54
2023/09/13 07:19:23;;;;;;;766.88;574.85;;;;;;;;;;5065737;28;20115;-55
2023/09/13 07:21:49;;;;;;;777.85;588.97;;;;;;;;;;5066751;28;20020;-52
2023/09/13 07:24:15;;;;;;;750.92;551.80;;;;;;;;;;5064848;28;20109;-51
2023/09/13 07:26:41;;;;;;;753.42;562.97;;;;;;;;;;5067242;28;20083;-54
2023/09/13 07:29:06;;;;;;;784.55;619.85;;;;;;;;;;5065024;28;20599;-55
2023/09/13 07:31:31;;;;;;;784.75;624.97;;;;;;;;;;5066386;28;20477;-54
2023/09/13 07:34:00;;;;;;;772.30;603.63;;;;;;;;;;5045779;28;20033;-56
2023/09/13 07:36:27;;;;;;;773.90;613.22;;;;;;;;;;5045411;28;20021;-52
2023/09/13 07:38:53;;;;;;;767.75;608.85;;;;;;;;;;5046328;28;20060;-53
2023/09/13 07:41:18;;;;;;;775.38;634.42;;;;;;;;;;5047716;28;20052;-55
2023/09/13 07:43:43;;;;;;;742.95;514.65;;;;;;;;;;5060840;28;20044;-57
2023/09/13 07:46:09;;;;;;;742.10;477.73;;;;;;;;;;5051500;28;20410;-53
2023/09/13 07:48:34;;;;;;;756.92;511.23;;;;;;;;;;5051386;28;20031;-53
2023/09/13 07:50:59;;;;;;;752.42;506.98;;;;;;;;;;5077501;28;20439;-53
2023/09/13 07:53:25;;;;;;;760.50;542.72;;;;;;;;;;5066079;28;20028;-55
2023/09/13 07:55:50;;;;;;;767.70;572.85;;;;;;;;;;5051331;28;20552;-56
2023/09/13 07:58:15;;;;;;;774.20;592.45;;;;;;;;;;5060663;28;20537;-53
2023/09/13 08:00:41;;;;;;;780.97;587.60;;;;;;;;;;5046344;28;20036;-54
2023/09/13 08:03:06;;;;;;;769.53;570.70;;;;;;;;;;5058313;28;20092;-52
2023/09/13 08:05:32;;;;;;;775.00;596.33;;;;;;;;;;5060916;28;20085;-56
2023/09/13 08:07:57;;;;;;;768.90;584.00;;;;;;;;;;5065926;28;20423;-55
2023/09/13 08:10:24;;;;;;;760.03;560.28;;;;;;;;;;5061368;28;20028;-56
2023/09/13 08:12:49;;;;;;;769.65;581.15;;;;;;;;;;5064568;28;20055;-54
2023/09/13 08:15:14;;;;;;;776.40;568.92;;;;;;;;;;5063841;28;20504;-52
2023/09/13 08:17:40;;;;;;;766.72;555.58;;;;;;;;;;5065326;28;20568;-56
2023/09/13 08:20:07;;;;;;;764.60;559.85;;;;;;;;;;5064714;28;20458;-56
2023/09/13 08:22:32;;;;;;;762.22;574.58;;;;;;;;;;5065034;28;20016;-54
2023/09/13 08:24:57;;;;;;;778.60;556.45;;;;;;;;;;5042191;28;20038;-54
2023/09/13 08:27:23;;;;;;;765.05;558.97;;;;;;;;;;5064244;28;20027;-54
2023/09/13 08:29:48;;;;;;;754.28;568.28;;;;;;;;;;5060812;28;20547;-54
2023/09/13 08:32:13;;;;;;;775.58;581.30;;;;;;;;;;5065148;28;20013;-54
2023/09/13 08:34:38;;;;;;;765.30;566.00;;;;;;;;;;5076024;28;20555;-55
2023/09/13 08:37:04;;;;;;;757.77;576.07;;;;;;;;;;5075488;28;20027;-56
2023/09/13 08:39:29;;;;;;;765.50;584.30;;;;;;;;;;5066538;28;20348;-55
2023/09/13 08:41:55;;;;;;;771.97;573.10;;;;;;;;;;5083653;28;20457;-55
2023/09/13 08:44:21;;;;;;;756.25;560.75;;;;;;;;;;5058349;28;20114;-55
2023/09/13 08:46:48;;;;;;;768.80;581.25;;;;;;;;;;5046504;28;20055;-56
2023/09/13 08:49:14;;;;;;;753.65;563.13;;;;;;;;;;5059144;28;20034;-54
2023/09/13 08:51:40;;;;;;;772.30;582.97;;;;;;;;;;5067011;28;20400;-57
2023/09/13 08:54:05;;;;;;;761.35;576.70;;;;;;;;;;5076611;28;20016;-56
2023/09/13 08:56:31;;;;;;;759.00;566.58;;;;;;;;;;5064563;28;20028;-54
2023/09/13 08:58:57;;;;;;;753.83;563.85;;;;;;;;;;5063286;28;20593;-52
2023/09/13 09:01:24;;;;;;;753.05;565.97;;;;;;;;;;5063693;28;20379;-56
2023/09/13 09:03:50;;;;;;;758.45;580.47;;;;;;;;;;5063911;28;20029;-54
2023/09/13 09:06:17;;;;;;;755.22;562.10;;;;;;;;;;5054999;28;20025;-53
2023/09/13 09:08:44;;;;;;;756.10;561.10;;;;;;;;;;5057329;28;20035;-55
2023/09/13 09:11:09;;;;;;;753.33;573.75;;;;;;;;;;5061183;28;20361;-56
2023/09/13 09:13:37;;;;;;;500.55;363.92;;;;;;;;;;5069548;28;20452;-52
2023/09/13 09:16:03;;;;;;;753.80;562.03;;;;;;;;;;5059958;28;20078;-52
2023/09/13 09:18:31;;;;;;;759.05;561.13;;;;;;;;;;5056546;28;20031;-53
2023/09/13 09:20:56;;;;;;;761.10;578.40;;;;;;;;;;5059257;28;20489;-52
2023/09/13 09:23:23;;;;;;;755.03;583.63;;;;;;;;;;5064173;28;20110;-56
2023/09/13 09:25:50;;;;;;;770.75;589.17;;;;;;;;;;5062950;28;20028;-50
2023/09/13 09:28:15;;;;;;;765.97;595.25;;;;;;;;;;5063905;28;20029;-53
2023/09/13 09:30:40;;;;;;;759.65;591.20;;;;;;;;;;5053168;28;20051;-55
2023/09/13 09:33:06;;;;;;;755.45;594.45;;;;;;;;;;5065514;28;20028;-53
2023/09/13 09:35:32;;;;;;;766.00;601.53;;;;;;;;;;5064088;28;20031;-55
2023/09/13 09:37:57;;;;;;;765.30;585.92;;;;;;;;;;5060795;28;20052;-53
2023/09/13 09:40:23;;;;;;;765.85;606.72;;;;;;;;;;5059034;28;20028;-54
2023/09/13 09:42:54;;;;;;;774.00;597.45;;;;;;;;;;5068557;28;20090;-56
2023/09/13 09:45:21;;;;;;;765.85;617.22;;;;;;;;;;5067109;28;20025;-57
2023/09/13 09:47:46;;;;;;;769.58;620.78;;;;;;;;;;5072697;28;20035;-56
2023/09/13 09:50:13;;;;;;;764.38;610.17;;;;;;;;;;5067236;28;20032;-56
2023/09/13 09:52:38;;;;;;;762.35;611.90;;;;;;;;;;5068805;28;20032;-56
2023/09/13 09:55:04;;;;;;;764.35;606.63;;;;;;;;;;5067195;28;20104;-55
2023/09/13 09:57:29;;;;;;;758.35;604.63;;;;;;;;;;5068303;28;20039;-54
2023/09/13 09:59:55;;;;;;;766.92;612.50;;;;;;;;;;5067165;28;20384;-55
2023/09/13 10:02:27;;;;;;;760.72;609.85;;;;;;;;;;5065160;28;20021;-55
2023/09/13 10:04:53;;;;;;;763.90;619.83;;;;;;;;;;5065835;28;20389;-55
2023/09/13 10:07:18;;;;;;;768.92;606.40;;;;;;;;;;5067462;28;20063;-56
2023/09/13 10:09:44;;;;;;;766.33;610.63;;;;;;;;;;5054319;28;20029;-55
2023/09/13 10:12:10;;;;;;;768.50;610.03;;;;;;;;;;5066407;28;20524;-55
2023/09/13 10:14:36;;;;;;;767.63;616.17;;;;;;;;;;5062759;28;20127;-57
2023/09/13 10:17:02;;;;;;;770.05;620.42;;;;;;;;;;5066798;28;20032;-55
2023/09/13 10:19:29;;;;;;;758.78;609.17;;;;;;;;;;5066918;28;20024;-57
2023/09/13 10:21:55;;;;;;;756.78;599.13;;;;;;;;;;5068348;28;20416;-56
2023/09/13 10:24:22;;;;;;;759.70;611.78;;;;;;;;;;5067041;28;20630;-57
2023/09/13 10:26:49;;;;;;;786.22;604.60;;;;;;;;;;5068271;28;20402;-57
2023/09/13 10:29:31;;;;;;;769.70;618.40;;;;;;;;;;5066262;28;20029;-57
2023/09/13 10:32:00;;;;;;;774.45;623.08;;;;;;;;;;5067985;28;20107;-57
2023/09/13 10:34:29;;;;;;;771.53;621.70;;;;;;;;;;5065997;28;20024;-57
2023/09/13 10:37:18;;;;;;;759.67;603.50;;;;;;;;;;5066831;28;20120;-56
2023/09/13 10:39:45;;;;;;;770.95;612.25;;;;;;;;;;4984150;28;20084;-56
2023/09/13 10:42:11;;;;;;;769.67;609.10;;;;;;;;;;4985721;28;20039;-57
2023/09/13 10:44:37;;;;;;;774.03;603.90;;;;;;;;;;4981600;28;20127;-54
2023/09/13 10:47:06;;;;;;;763.47;611.03;;;;;;;;;;5005299;28;20029;-57
2023/09/13 10:49:33;;;;;;;756.08;604.97;;;;;;;;;;4985132;28;20050;-54
2023/09/13 10:51:59;;;;;;;768.50;612.95;;;;;;;;;;5001548;28;20116;-56
2023/09/13 10:54:24;;;;;;;769.60;613.00;;;;;;;;;;4984250;28;20113;-57
2023/09/13 10:56:50;;;;;;;805.78;597.78;;;;;;;;;;4985889;28;20035;-56
2023/09/13 10:59:18;;;;;;;761.05;594.15;;;;;;;;;;4983639;28;20034;-53
2023/09/13 11:01:46;;;;;;;762.87;587.33;;;;;;;;;;4985609;28;20121;-56
2023/09/13 11:04:12;;;;;;;767.72;584.17;;;;;;;;;;4983782;28;20046;-57
2023/09/13 11:06:37;;;;;;;760.33;595.05;;;;;;;;;;4985417;28;20080;-57
2023/09/13 11:09:13;;;;;;;762.33;592.83;;;;;;;;;;4980076;28;20034;-55
2023/09/13 11:11:38;;;;;;;760.85;599.58;;;;;;;;;;4984296;28;20022;-56
2023/09/13 11:14:10;;;;;;;761.08;598.95;;;;;;;;;;4981931;28;20030;-53
2023/09/13 11:16:35;;;;;;;752.70;591.53;;;;;;;;;;5020686;28;20043;-57
2023/09/13 11:19:03;;;;;;;761.88;602.40;;;;;;;;;;5045667;28;20044;-53
2023/09/13 11:21:44;;;;;;;753.30;588.28;;;;;;;;;;5067263;28;20024;-55
2023/09/13 11:24:10;;;;;;;752.10;589.85;;;;;;;;;;5064283;28;20044;-54
2023/09/13 11:26:41;;;;;;;760.72;596.50;;;;;;;;;;5054216;28;20073;-54
2023/09/13 11:29:19;;;;;;;765.03;602.35;;;;;;;;;;5083111;28;20060;-57
2023/09/13 11:31:58;;;;;;;758.33;584.13;;;;;;;;;;5067157;28;20370;-58
2023/09/13 11:34:23;;;;;;;765.40;628.73;;;;;;;;;;5065750;28;20044;-57
2023/09/13 11:37:04;;;;;;;762.35;531.20;;;;;;;;;;5066197;28;20303;-55
2023/09/13 11:39:29;;;;;;;746.95;511.48;;;;;;;;;;5083768;28;20039;-57
2023/09/13 11:41:57;;;;;;;741.13;510.92;;;;;;;;;;5061566;28;20013;-57
2023/09/13 11:44:23;;;;;;;742.15;531.00;;;;;;;;;;5050758;28;20068;-57
2023/09/13 11:46:49;;;;;;;763.83;557.83;;;;;;;;;;5060245;28;20492;-58
2023/09/13 11:49:18;;;;;;;748.78;556.70;;;;;;;;;;5065034;28;20120;-56
2023/09/13 11:51:46;;;;;;;760.35;587.83;;;;;;;;;;5065965;28;20060;-56
2023/09/13 11:54:13;;;;;;;741.60;535.08;;;;;;;;;;5052371;28;20100;-57
2023/09/13 11:56:43;;;;;;;756.00;555.45;;;;;;;;;;5060189;28;20358;-57
2023/09/13 11:59:08;;;;;;;744.78;542.35;;;;;;;;;;5064981;28;20037;-57
2023/09/13 12:01:41;;;;;;;754.40;560.05;;;;;;;;;;5066675;28;20501;-57
2023/09/13 12:04:08;;;;;;;748.50;534.25;;;;;;;;;;5056937;28;20043;-59
2023/09/13 12:06:57;;;;;;;755.25;567.00;;;;;;;;;;5060937;28;20016;-57
2023/09/13 12:09:23;;;;;;;749.08;536.85;;;;;;;;;;5047074;28;20025;-57
2023/09/13 12:11:50;;;;;;;754.15;548.70;;;;;;;;;;5046434;28;20474;-58
2023/09/13 12:14:15;;;;;;;752.80;551.28;;;;;;;;;;5046390;28;20059;-56
2023/09/13 12:16:42;;;;;;;743.47;535.03;;;;;;;;;;5057203;28;20435;-58
2023/09/13 12:19:07;;;;;;;741.80;531.67;;;;;;;;;;5062032;28;20373;-55
2023/09/13 12:21:33;;;;;;;738.13;532.65;;;;;;;;;;5065751;28;20020;-57
2023/09/13 12:23:59;;;;;;;742.03;526.28;;;;;;;;;;5064466;28;20154;-56
2023/09/13 12:26:24;;;;;;;744.42;525.15;;;;;;;;;;5064998;28;20024;-57
2023/09/13 12:28:50;;;;;;;745.03;520.35;;;;;;;;;;5057364;28;20535;-55
2023/09/13 12:31:16;;;;;;;757.63;554.13;;;;;;;;;;5065043;28;20020;-57
2023/09/13 12:33:42;;;;;;;750.80;534.58;;;;;;;;;;5065913;28;20024;-57
2023/09/13 12:36:08;;;;;;;744.47;515.42;;;;;;;;;;5064544;28;20028;-55
2023/09/13 12:38:42;;;;;;;733.20;491.40;;;;;;;;;;5070430;28;20029;-56
2023/09/13 12:41:08;;;;;;;743.03;526.95;;;;;;;;;;5064436;28;20020;-55
2023/09/13 12:43:35;;;;;;;734.70;505.70;;;;;;;;;;5065162;28;20393;-56
2023/09/13 12:46:01;;;;;;;748.78;527.95;;;;;;;;;;5057726;28;20115;-57
2023/09/13 12:48:26;;;;;;;739.58;503.45;;;;;;;;;;5064760;28;20135;-57
2023/09/13 12:50:51;;;;;;;493.25;325.80;;;;;;;;;;5062999;28;20515;-56
2023/09/13 12:53:18;;;;;;;733.35;469.23;;;;;;;;;;5058152;28;20051;-57
2023/09/13 12:55:44;;;;;;;725.85;440.15;;;;;;;;;;5061630;28;20024;-57
2023/09/13 12:58:10;;;;;;;735.05;491.38;;;;;;;;;;5065230;28;20580;-58
2023/09/13 13:00:47;;;;;;;745.58;508.20;;;;;;;;;;5057641;28;20025;-56
2023/09/13 13:03:12;;;;;;;738.22;502.42;;;;;;;;;;5058106;28;20020;-57
2023/09/13 13:05:41;;;;;;;744.55;521.42;;;;;;;;;;5053630;28;20393;-56
2023/09/13 13:08:06;;;;;;;739.63;497.75;;;;;;;;;;5063898;28;20059;-55
2023/09/13 13:10:32;;;;;;;729.47;471.08;;;;;;;;;;5063051;28;20082;-56
2023/09/13 13:12:57;;;;;;;94.78;51.35;;;;;;;;;;5065373;28;20491;-56
2023/09/13 13:15:29;;;;;;;739.70;249.73;;;;;;;;;;5053394;28;20098;-55
2023/09/13 13:17:55;;;;;;;32.65;29.35;;;;;;;;;;5048623;28;20025;-56
2023/09/13 13:20:20;;;;;;;515.00;209.77;;;;;;;;;;5064637;28;20020;-55
2023/09/13 13:22:45;;;;;;;739.15;260.02;;;;;;;;;;5045816;28;20477;-54
2023/09/13 13:25:11;;;;;;;754.40;305.42;;;;;;;;;;5063579;28;20055;-54
2023/09/13 13:27:36;;;;;;;33.10;29.83;;;;;;;;;;5065018;28;20052;-57
2023/09/13 13:30:01;;;;;;;501.25;164.05;;;;;;;;;;5063771;28;20063;-56
2023/09/13 13:32:27;;;;;;;28.60;25.95;;;;;;;;;;5064106;28;20027;-57
2023/09/13 13:34:52;;;;;;;32.38;29.25;;;;;;;;;;5048531;28;20021;-56
2023/09/13 13:37:18;;;;;;;746.40;284.38;;;;;;;;;;5042426;28;20098;-56
2023/09/13 13:39:43;;;;;;;316.90;139.57;;;;;;;;;;5058376;28;20024;-56
2023/09/13 13:42:09;;;;;;;513.17;190.95;;;;;;;;;;5044926;28;20036;-55
2023/09/13 13:44:36;;;;;;;501.20;166.73;;;;;;;;;;5062243;28;20525;-55
2023/09/13 13:47:02;;;;;;;35.47;32.23;;;;;;;;;;5045513;28;20120;-57
2023/09/13 13:49:28;;;;;;;35.05;31.77;;;;;;;;;;5056956;28;20100;-55